sensor_id;sensor_type;location;lat;lon;timestamp;P1;durP1;ratioP1;P2;durP2;ratioP2
43996;SDS011;34318;45.818;15.964;2024-02-21T00:01:15;7.68;;;6.45;;
43996;SDS011;34318;45.818;15.964;2024-02-21T00:03:43;7.60;;;6.88;;
43996;SDS011;34318;45.818;15.964;2024-02-21T00:06:10;6.90;;;6.22;;
43996;SDS011;34318;45.818;15.964;2024-02-21T00:08:37;9.73;;;6.90;;
43996;SDS011;34318;45.818;15.964;2024-02-21T00:11:05;7.28;;;6.55;;
43996;SDS011;34318;45.818;15.964;2024-02-21T00:13:33;7.63;;;6.50;;
43996;SDS011;34318;45.818;15.964;2024-02-21T00:16:00;8.68;;;6.88;;
43996;SDS011;34318;45.818;15.964;2024-02-21T00:18:28;8.05;;;6.88;;
43996;SDS011;34318;45.818;15.964;2024-02-21T00:20:56;7.60;;;6.57;;
43996;SDS011;34318;45.818;15.964;2024-02-21T00:23:23;8.52;;;6.20;;
43996;SDS011;34318;45.818;15.964;2024-02-21T00:25:50;9.13;;;6.65;;
43996;SDS011;34318;45.818;15.964;2024-02-21T00:28:17;7.53;;;6.63;;
43996;SDS011;34318;45.818;15.964;2024-02-21T00:30:45;6.78;;;6.03;;
43996;SDS011;34318;45.818;15.964;2024-02-21T00:33:13;7.50;;;6.35;;
43996;SDS011;34318;45.818;15.964;2024-02-21T00:35:41;6.63;;;5.97;;
43996;SDS011;34318;45.818;15.964;2024-02-21T00:38:08;7.57;;;6.57;;
43996;SDS011;34318;45.818;15.964;2024-02-21T00:40:36;8.20;;;6.40;;
43996;SDS011;34318;45.818;15.964;2024-02-21T00:43:03;8.30;;;7.15;;
43996;SDS011;34318;45.818;15.964;2024-02-21T00:45:30;8.13;;;6.53;;
43996;SDS011;34318;45.818;15.964;2024-02-21T00:47:58;7.53;;;6.82;;
43996;SDS011;34318;45.818;15.964;2024-02-21T00:50:25;7.40;;;6.65;;
43996;SDS011;34318;45.818;15.964;2024-02-21T00:52:52;6.57;;;5.97;;
43996;SDS011;34318;45.818;15.964;2024-02-21T00:55:19;6.68;;;5.40;;
43996;SDS011;34318;45.818;15.964;2024-02-21T00:57:47;6.72;;;6.03;;
43996;SDS011;34318;45.818;15.964;2024-02-21T01:00:14;6.85;;;6.15;;
43996;SDS011;34318;45.818;15.964;2024-02-21T01:02:41;10.10;;;6.38;;
43996;SDS011;34318;45.818;15.964;2024-02-21T01:05:09;8.43;;;6.75;;
43996;SDS011;34318;45.818;15.964;2024-02-21T01:07:36;6.43;;;5.72;;
43996;SDS011;34318;45.818;15.964;2024-02-21T01:10:03;6.90;;;6.13;;
43996;SDS011;34318;45.818;15.964;2024-02-21T01:12:31;7.45;;;6.60;;
43996;SDS011;34318;45.818;15.964;2024-02-21T01:14:58;7.18;;;6.15;;
43996;SDS011;34318;45.818;15.964;2024-02-21T01:17:25;6.80;;;6.20;;
43996;SDS011;34318;45.818;15.964;2024-02-21T01:19:52;8.05;;;6.10;;
43996;SDS011;34318;45.818;15.964;2024-02-21T01:22:20;6.53;;;5.82;;
43996;SDS011;34318;45.818;15.964;2024-02-21T01:24:47;7.00;;;6.30;;
43996;SDS011;34318;45.818;15.964;2024-02-21T01:27:14;7.35;;;6.28;;
43996;SDS011;34318;45.818;15.964;2024-02-21T01:29:41;7.28;;;6.57;;
43996;SDS011;34318;45.818;15.964;2024-02-21T01:32:09;7.03;;;5.85;;
43996;SDS011;34318;45.818;15.964;2024-02-21T01:34:36;7.30;;;5.72;;
43996;SDS011;34318;45.818;15.964;2024-02-21T01:37:03;6.45;;;5.53;;
43996;SDS011;34318;45.818;15.964;2024-02-21T01:39:33;6.25;;;5.65;;
43996;SDS011;34318;45.818;15.964;2024-02-21T01:42:00;6.80;;;5.95;;
43996;SDS011;34318;45.818;15.964;2024-02-21T01:44:28;6.50;;;5.90;;
43996;SDS011;34318;45.818;15.964;2024-02-21T01:46:55;5.78;;;5.25;;
43996;SDS011;34318;45.818;15.964;2024-02-21T01:49:22;5.82;;;5.32;;
43996;SDS011;34318;45.818;15.964;2024-02-21T01:51:50;6.28;;;5.68;;
43996;SDS011;34318;45.818;15.964;2024-02-21T01:54:17;5.95;;;5.45;;
43996;SDS011;34318;45.818;15.964;2024-02-21T01:56:46;5.82;;;5.22;;
43996;SDS011;34318;45.818;15.964;2024-02-21T01:59:14;7.97;;;5.85;;
43996;SDS011;34318;45.818;15.964;2024-02-21T02:01:42;6.10;;;5.50;;
43996;SDS011;34318;45.818;15.964;2024-02-21T02:04:10;6.00;;;5.40;;
43996;SDS011;34318;45.818;15.964;2024-02-21T02:06:38;5.85;;;5.25;;
43996;SDS011;34318;45.818;15.964;2024-02-21T02:09:05;6.25;;;5.55;;
43996;SDS011;34318;45.818;15.964;2024-02-21T02:11:33;6.22;;;5.63;;
43996;SDS011;34318;45.818;15.964;2024-02-21T02:14:01;6.07;;;5.38;;
43996;SDS011;34318;45.818;15.964;2024-02-21T02:16:28;6.53;;;5.45;;
43996;SDS011;34318;45.818;15.964;2024-02-21T02:18:55;7.10;;;5.65;;
43996;SDS011;34318;45.818;15.964;2024-02-21T02:21:26;5.93;;;5.32;;
43996;SDS011;34318;45.818;15.964;2024-02-21T02:23:54;6.03;;;5.43;;
43996;SDS011;34318;45.818;15.964;2024-02-21T02:26:21;5.63;;;5.13;;
43996;SDS011;34318;45.818;15.964;2024-02-21T02:28:48;7.07;;;5.25;;
43996;SDS011;34318;45.818;15.964;2024-02-21T02:31:16;6.80;;;5.43;;
43996;SDS011;34318;45.818;15.964;2024-02-21T02:33:43;7.05;;;5.60;;
43996;SDS011;34318;45.818;15.964;2024-02-21T02:36:11;5.03;;;4.57;;
43996;SDS011;34318;45.818;15.964;2024-02-21T02:38:38;6.00;;;5.22;;
43996;SDS011;34318;45.818;15.964;2024-02-21T02:41:05;5.43;;;4.95;;
43996;SDS011;34318;45.818;15.964;2024-02-21T02:43:33;5.72;;;5.20;;
43996;SDS011;34318;45.818;15.964;2024-02-21T02:46:00;5.50;;;4.80;;
43996;SDS011;34318;45.818;15.964;2024-02-21T02:48:27;5.70;;;5.07;;
43996;SDS011;34318;45.818;15.964;2024-02-21T02:50:54;5.50;;;5.00;;
43996;SDS011;34318;45.818;15.964;2024-02-21T02:53:22;4.78;;;4.28;;
43996;SDS011;34318;45.818;15.964;2024-02-21T02:55:49;5.80;;;5.20;;
43996;SDS011;34318;45.818;15.964;2024-02-21T02:58:16;5.28;;;4.72;;
43996;SDS011;34318;45.818;15.964;2024-02-21T03:00:43;5.03;;;4.53;;
43996;SDS011;34318;45.818;15.964;2024-02-21T03:03:11;5.38;;;4.88;;
43996;SDS011;34318;45.818;15.964;2024-02-21T03:05:38;5.95;;;5.45;;
43996;SDS011;34318;45.818;15.964;2024-02-21T03:08:05;4.97;;;4.47;;
43996;SDS011;34318;45.818;15.964;2024-02-21T03:10:33;5.28;;;4.78;;
43996;SDS011;34318;45.818;15.964;2024-02-21T03:13:01;5.22;;;4.72;;
43996;SDS011;34318;45.818;15.964;2024-02-21T03:15:28;4.63;;;4.22;;
43996;SDS011;34318;45.818;15.964;2024-02-21T03:17:55;5.30;;;4.80;;
43996;SDS011;34318;45.818;15.964;2024-02-21T03:20:22;5.25;;;4.70;;
43996;SDS011;34318;45.818;15.964;2024-02-21T03:22:50;5.05;;;4.57;;
43996;SDS011;34318;45.818;15.964;2024-02-21T03:25:17;5.55;;;4.75;;
43996;SDS011;34318;45.818;15.964;2024-02-21T03:27:46;4.95;;;4.30;;
43996;SDS011;34318;45.818;15.964;2024-02-21T03:30:13;4.90;;;4.50;;
43996;SDS011;34318;45.818;15.964;2024-02-21T03:32:40;5.78;;;4.80;;
43996;SDS011;34318;45.818;15.964;2024-02-21T03:35:08;4.97;;;4.47;;
43996;SDS011;34318;45.818;15.964;2024-02-21T03:37:36;4.82;;;4.32;;
43996;SDS011;34318;45.818;15.964;2024-02-21T03:40:06;5.60;;;4.82;;
43996;SDS011;34318;45.818;15.964;2024-02-21T03:42:33;5.00;;;4.50;;
43996;SDS011;34318;45.818;15.964;2024-02-21T03:45:00;5.38;;;4.50;;
43996;SDS011;34318;45.818;15.964;2024-02-21T03:47:27;5.43;;;4.18;;
43996;SDS011;34318;45.818;15.964;2024-02-21T03:49:55;4.82;;;4.43;;
43996;SDS011;34318;45.818;15.964;2024-02-21T03:52:23;5.40;;;4.57;;
43996;SDS011;34318;45.818;15.964;2024-02-21T03:54:50;4.65;;;4.25;;
43996;SDS011;34318;45.818;15.964;2024-02-21T03:57:17;6.85;;;4.43;;
43996;SDS011;34318;45.818;15.964;2024-02-21T03:59:44;6.05;;;4.60;;
43996;SDS011;34318;45.818;15.964;2024-02-21T04:02:12;4.85;;;4.45;;
43996;SDS011;34318;45.818;15.964;2024-02-21T04:04:42;4.35;;;3.95;;
43996;SDS011;34318;45.818;15.964;2024-02-21T04:07:09;9.45;;;4.57;;
43996;SDS011;34318;45.818;15.964;2024-02-21T04:09:37;4.50;;;4.10;;
43996;SDS011;34318;45.818;15.964;2024-02-21T04:12:04;4.72;;;4.32;;
43996;SDS011;34318;45.818;15.964;2024-02-21T04:14:31;4.30;;;3.97;;
43996;SDS011;34318;45.818;15.964;2024-02-21T04:16:58;5.15;;;4.10;;
43996;SDS011;34318;45.818;15.964;2024-02-21T04:19:26;4.43;;;4.03;;
43996;SDS011;34318;45.818;15.964;2024-02-21T04:21:53;4.50;;;4.10;;
43996;SDS011;34318;45.818;15.964;2024-02-21T04:24:20;4.68;;;4.22;;
43996;SDS011;34318;45.818;15.964;2024-02-21T04:26:48;4.55;;;4.15;;
43996;SDS011;34318;45.818;15.964;2024-02-21T04:29:15;4.50;;;4.10;;
43996;SDS011;34318;45.818;15.964;2024-02-21T04:31:42;4.53;;;4.13;;
43996;SDS011;34318;45.818;15.964;2024-02-21T04:34:09;4.40;;;4.00;;
43996;SDS011;34318;45.818;15.964;2024-02-21T04:36:37;4.95;;;4.47;;
43996;SDS011;34318;45.818;15.964;2024-02-21T04:39:04;4.72;;;4.32;;
43996;SDS011;34318;45.818;15.964;2024-02-21T04:41:31;5.80;;;4.40;;
43996;SDS011;34318;45.818;15.964;2024-02-21T04:43:58;4.60;;;4.20;;
43996;SDS011;34318;45.818;15.964;2024-02-21T04:46:26;4.20;;;3.80;;
43996;SDS011;34318;45.818;15.964;2024-02-21T04:48:53;4.32;;;3.92;;
43996;SDS011;34318;45.818;15.964;2024-02-21T04:51:22;4.03;;;3.60;;
43996;SDS011;34318;45.818;15.964;2024-02-21T04:53:49;4.60;;;3.65;;
43996;SDS011;34318;45.818;15.964;2024-02-21T04:56:16;4.80;;;4.40;;
43996;SDS011;34318;45.818;15.964;2024-02-21T04:58:43;4.47;;;4.03;;
43996;SDS011;34318;45.818;15.964;2024-02-21T05:01:11;5.40;;;3.63;;
43996;SDS011;34318;45.818;15.964;2024-02-21T05:03:38;4.85;;;4.05;;
43996;SDS011;34318;45.818;15.964;2024-02-21T05:06:05;4.00;;;3.55;;
43996;SDS011;34318;45.818;15.964;2024-02-21T05:08:34;4.22;;;3.83;;
43996;SDS011;34318;45.818;15.964;2024-02-21T05:11:01;4.20;;;3.80;;
43996;SDS011;34318;45.818;15.964;2024-02-21T05:13:29;3.95;;;3.53;;
43996;SDS011;34318;45.818;15.964;2024-02-21T05:15:56;4.88;;;3.55;;
43996;SDS011;34318;45.818;15.964;2024-02-21T05:18:23;4.10;;;3.70;;
43996;SDS011;34318;45.818;15.964;2024-02-21T05:20:51;3.90;;;3.60;;
43996;SDS011;34318;45.818;15.964;2024-02-21T05:23:18;3.78;;;3.47;;
43996;SDS011;34318;45.818;15.964;2024-02-21T05:25:45;4.15;;;3.75;;
43996;SDS011;34318;45.818;15.964;2024-02-21T05:28:12;3.58;;;3.28;;
43996;SDS011;34318;45.818;15.964;2024-02-21T05:30:40;4.00;;;3.60;;
43996;SDS011;34318;45.818;15.964;2024-02-21T05:33:09;4.68;;;3.97;;
43996;SDS011;34318;45.818;15.964;2024-02-21T05:35:36;4.00;;;3.60;;
43996;SDS011;34318;45.818;15.964;2024-02-21T05:38:03;4.07;;;3.78;;
43996;SDS011;34318;45.818;15.964;2024-02-21T05:40:37;4.10;;;3.70;;
43996;SDS011;34318;45.818;15.964;2024-02-21T05:43:04;3.97;;;3.67;;
43996;SDS011;34318;45.818;15.964;2024-02-21T05:45:31;4.30;;;3.90;;
43996;SDS011;34318;45.818;15.964;2024-02-21T05:47:59;3.63;;;3.33;;
43996;SDS011;34318;45.818;15.964;2024-02-21T05:50:26;3.70;;;3.40;;
43996;SDS011;34318;45.818;15.964;2024-02-21T05:52:54;4.00;;;3.60;;
43996;SDS011;34318;45.818;15.964;2024-02-21T05:55:22;3.75;;;3.30;;
43996;SDS011;34318;45.818;15.964;2024-02-21T05:57:49;3.50;;;3.20;;
43996;SDS011;34318;45.818;15.964;2024-02-21T06:00:16;4.53;;;3.60;;
43996;SDS011;34318;45.818;15.964;2024-02-21T06:02:44;3.90;;;3.50;;
43996;SDS011;34318;45.818;15.964;2024-02-21T06:05:11;4.25;;;3.85;;
43996;SDS011;34318;45.818;15.964;2024-02-21T06:07:38;4.25;;;3.85;;
43996;SDS011;34318;45.818;15.964;2024-02-21T06:10:06;4.38;;;3.97;;
43996;SDS011;34318;45.818;15.964;2024-02-21T06:12:33;3.75;;;3.35;;
43996;SDS011;34318;45.818;15.964;2024-02-21T06:15:01;3.60;;;3.30;;
43996;SDS011;34318;45.818;15.964;2024-02-21T06:17:28;3.78;;;3.47;;
43996;SDS011;34318;45.818;15.964;2024-02-21T06:19:55;3.80;;;3.50;;
43996;SDS011;34318;45.818;15.964;2024-02-21T06:22:22;3.58;;;3.28;;
43996;SDS011;34318;45.818;15.964;2024-02-21T06:24:49;3.70;;;3.40;;
43996;SDS011;34318;45.818;15.964;2024-02-21T06:27:17;4.28;;;3.40;;
43996;SDS011;34318;45.818;15.964;2024-02-21T06:29:44;3.45;;;3.15;;
43996;SDS011;34318;45.818;15.964;2024-02-21T06:32:12;3.50;;;3.20;;
43996;SDS011;34318;45.818;15.964;2024-02-21T06:34:39;3.55;;;3.22;;
43996;SDS011;34318;45.818;15.964;2024-02-21T06:37:06;3.95;;;3.50;;
43996;SDS011;34318;45.818;15.964;2024-02-21T06:39:34;4.00;;;3.60;;
43996;SDS011;34318;45.818;15.964;2024-02-21T06:42:03;3.55;;;3.25;;
43996;SDS011;34318;45.818;15.964;2024-02-21T06:44:30;4.07;;;3.67;;
43996;SDS011;34318;45.818;15.964;2024-02-21T06:47:01;4.20;;;3.75;;
43996;SDS011;34318;45.818;15.964;2024-02-21T06:49:28;3.80;;;3.50;;
43996;SDS011;34318;45.818;15.964;2024-02-21T06:51:56;4.13;;;3.72;;
43996;SDS011;34318;45.818;15.964;2024-02-21T06:54:23;4.07;;;3.65;;
43996;SDS011;34318;45.818;15.964;2024-02-21T06:56:50;3.72;;;3.42;;
43996;SDS011;34318;45.818;15.964;2024-02-21T06:59:17;3.80;;;3.35;;
43996;SDS011;34318;45.818;15.964;2024-02-21T07:01:45;3.65;;;3.35;;
43996;SDS011;34318;45.818;15.964;2024-02-21T07:04:13;3.70;;;3.40;;
43996;SDS011;34318;45.818;15.964;2024-02-21T07:06:41;3.92;;;3.63;;
43996;SDS011;34318;45.818;15.964;2024-02-21T07:09:08;3.67;;;3.38;;
43996;SDS011;34318;45.818;15.964;2024-02-21T07:11:35;4.03;;;3.50;;
43996;SDS011;34318;45.818;15.964;2024-02-21T07:14:03;4.78;;;3.45;;
43996;SDS011;34318;45.818;15.964;2024-02-21T07:16:30;4.25;;;3.50;;
43996;SDS011;34318;45.818;15.964;2024-02-21T07:18:59;4.93;;;3.30;;
43996;SDS011;34318;45.818;15.964;2024-02-21T07:21:26;5.90;;;3.90;;
43996;SDS011;34318;45.818;15.964;2024-02-21T07:23:53;3.95;;;3.60;;
43996;SDS011;34318;45.818;15.964;2024-02-21T07:26:20;5.15;;;3.75;;
43996;SDS011;34318;45.818;15.964;2024-02-21T07:28:48;6.25;;;3.55;;
43996;SDS011;34318;45.818;15.964;2024-02-21T07:31:15;4.22;;;3.83;;
43996;SDS011;34318;45.818;15.964;2024-02-21T07:33:43;5.82;;;3.60;;
43996;SDS011;34318;45.818;15.964;2024-02-21T07:36:10;4.70;;;4.00;;
43996;SDS011;34318;45.818;15.964;2024-02-21T07:38:38;4.15;;;3.80;;
43996;SDS011;34318;45.818;15.964;2024-02-21T07:41:06;4.00;;;3.70;;
43996;SDS011;34318;45.818;15.964;2024-02-21T07:43:33;4.35;;;3.45;;
43996;SDS011;34318;45.818;15.964;2024-02-21T07:46:00;6.45;;;4.00;;
43996;SDS011;34318;45.818;15.964;2024-02-21T07:48:28;6.80;;;3.83;;
43996;SDS011;34318;45.818;15.964;2024-02-21T07:50:59;4.32;;;3.92;;
43996;SDS011;34318;45.818;15.964;2024-02-21T07:53:26;4.43;;;4.03;;
43996;SDS011;34318;45.818;15.964;2024-02-21T07:55:54;5.65;;;4.97;;
43996;SDS011;34318;45.818;15.964;2024-02-21T07:58:21;5.20;;;4.70;;
43996;SDS011;34318;45.818;15.964;2024-02-21T08:00:48;5.57;;;4.80;;
43996;SDS011;34318;45.818;15.964;2024-02-21T08:03:15;5.32;;;4.82;;
43996;SDS011;34318;45.818;15.964;2024-02-21T08:05:44;6.10;;;4.80;;
43996;SDS011;34318;45.818;15.964;2024-02-21T08:08:12;5.75;;;4.72;;
43996;SDS011;34318;45.818;15.964;2024-02-21T08:10:44;7.07;;;5.20;;
43996;SDS011;34318;45.818;15.964;2024-02-21T08:13:12;7.05;;;4.65;;
43996;SDS011;34318;45.818;15.964;2024-02-21T08:15:39;8.88;;;5.35;;
43996;SDS011;34318;45.818;15.964;2024-02-21T08:18:08;4.72;;;4.00;;
43996;SDS011;34318;45.818;15.964;2024-02-21T08:20:35;6.20;;;4.50;;
43996;SDS011;34318;45.818;15.964;2024-02-21T08:23:03;7.15;;;4.70;;
43996;SDS011;34318;45.818;15.964;2024-02-21T08:25:30;7.32;;;5.30;;
43996;SDS011;34318;45.818;15.964;2024-02-21T08:27:58;5.38;;;4.55;;
43996;SDS011;34318;45.818;15.964;2024-02-21T08:30:26;7.15;;;4.65;;
43996;SDS011;34318;45.818;15.964;2024-02-21T08:32:53;4.68;;;4.28;;
43996;SDS011;34318;45.818;15.964;2024-02-21T08:35:21;6.82;;;4.30;;
43996;SDS011;34318;45.818;15.964;2024-02-21T08:37:51;6.18;;;4.43;;
43996;SDS011;34318;45.818;15.964;2024-02-21T08:40:19;6.68;;;4.50;;
43996;SDS011;34318;45.818;15.964;2024-02-21T08:42:48;7.35;;;4.70;;
43996;SDS011;34318;45.818;15.964;2024-02-21T08:45:16;6.00;;;5.07;;
43996;SDS011;34318;45.818;15.964;2024-02-21T08:47:43;7.60;;;4.60;;
43996;SDS011;34318;45.818;15.964;2024-02-21T08:50:11;5.28;;;4.78;;
43996;SDS011;34318;45.818;15.964;2024-02-21T08:52:53;6.32;;;4.57;;
43996;SDS011;34318;45.818;15.964;2024-02-21T08:55:21;5.10;;;4.53;;
43996;SDS011;34318;45.818;15.964;2024-02-21T08:57:48;5.85;;;4.40;;
43996;SDS011;34318;45.818;15.964;2024-02-21T09:00:16;6.25;;;4.68;;
43996;SDS011;34318;45.818;15.964;2024-02-21T09:02:44;7.07;;;4.80;;
43996;SDS011;34318;45.818;15.964;2024-02-21T09:05:13;4.68;;;4.28;;
43996;SDS011;34318;45.818;15.964;2024-02-21T09:07:41;6.68;;;5.38;;
43996;SDS011;34318;45.818;15.964;2024-02-21T09:10:09;7.72;;;4.72;;
43996;SDS011;34318;45.818;15.964;2024-02-21T09:12:36;5.28;;;4.15;;
43996;SDS011;34318;45.818;15.964;2024-02-21T09:15:03;8.05;;;5.47;;
43996;SDS011;34318;45.818;15.964;2024-02-21T09:17:31;5.53;;;4.68;;
43996;SDS011;34318;45.818;15.964;2024-02-21T09:19:59;5.25;;;4.25;;
43996;SDS011;34318;45.818;15.964;2024-02-21T09:22:29;4.93;;;4.47;;
43996;SDS011;34318;45.818;15.964;2024-02-21T09:24:57;6.25;;;4.35;;
43996;SDS011;34318;45.818;15.964;2024-02-21T09:27:25;6.22;;;4.60;;
43996;SDS011;34318;45.818;15.964;2024-02-21T09:29:52;4.47;;;4.07;;
43996;SDS011;34318;45.818;15.964;2024-02-21T09:32:19;4.43;;;4.03;;
43996;SDS011;34318;45.818;15.964;2024-02-21T09:34:47;5.50;;;4.20;;
43996;SDS011;34318;45.818;15.964;2024-02-21T09:37:14;6.20;;;4.65;;
43996;SDS011;34318;45.818;15.964;2024-02-21T09:39:41;5.53;;;4.72;;
43996;SDS011;34318;45.818;15.964;2024-02-21T09:42:08;4.20;;;3.80;;
43996;SDS011;34318;45.818;15.964;2024-02-21T09:44:38;4.38;;;3.95;;
43996;SDS011;34318;45.818;15.964;2024-02-21T09:47:09;6.93;;;4.20;;
43996;SDS011;34318;45.818;15.964;2024-02-21T09:49:38;4.47;;;3.97;;
43996;SDS011;34318;45.818;15.964;2024-02-21T09:52:07;5.90;;;3.72;;
43996;SDS011;34318;45.818;15.964;2024-02-21T09:54:35;4.50;;;4.10;;
43996;SDS011;34318;45.818;15.964;2024-02-21T09:57:03;4.40;;;4.00;;
43996;SDS011;34318;45.818;15.964;2024-02-21T09:59:32;4.70;;;4.30;;
43996;SDS011;34318;45.818;15.964;2024-02-21T10:02:00;4.43;;;4.00;;
43996;SDS011;34318;45.818;15.964;2024-02-21T10:04:28;5.03;;;3.95;;
43996;SDS011;34318;45.818;15.964;2024-02-21T10:06:58;3.97;;;3.58;;
43996;SDS011;34318;45.818;15.964;2024-02-21T10:09:26;4.80;;;4.40;;
43996;SDS011;34318;45.818;15.964;2024-02-21T10:11:55;5.53;;;4.15;;
43996;SDS011;34318;45.818;15.964;2024-02-21T10:14:23;4.65;;;3.83;;
43996;SDS011;34318;45.818;15.964;2024-02-21T10:16:56;6.55;;;4.40;;
43996;SDS011;34318;45.818;15.964;2024-02-21T10:19:27;7.20;;;4.20;;
43996;SDS011;34318;45.818;15.964;2024-02-21T10:22:04;5.60;;;4.25;;
43996;SDS011;34318;45.818;15.964;2024-02-21T10:24:31;9.25;;;4.25;;
43996;SDS011;34318;45.818;15.964;2024-02-21T10:27:16;5.25;;;4.72;;
43996;SDS011;34318;45.818;15.964;2024-02-21T10:29:48;5.13;;;3.97;;
43996;SDS011;34318;45.818;15.964;2024-02-21T10:32:17;5.30;;;4.80;;
43996;SDS011;34318;45.818;15.964;2024-02-21T10:34:44;7.22;;;4.60;;
43996;SDS011;34318;45.818;15.964;2024-02-21T10:37:12;6.10;;;5.03;;
43996;SDS011;34318;45.818;15.964;2024-02-21T10:39:40;6.40;;;5.43;;
43996;SDS011;34318;45.818;15.964;2024-02-21T10:42:08;7.00;;;4.88;;
43996;SDS011;34318;45.818;15.964;2024-02-21T10:44:38;7.28;;;5.40;;
43996;SDS011;34318;45.818;15.964;2024-02-21T10:47:10;8.32;;;4.68;;
43996;SDS011;34318;45.818;15.964;2024-02-21T10:49:38;7.53;;;5.50;;
43996;SDS011;34318;45.818;15.964;2024-02-21T10:52:11;7.32;;;4.80;;
43996;SDS011;34318;45.818;15.964;2024-02-21T10:57:13;6.20;;;4.88;;
43996;SDS011;34318;45.818;15.964;2024-02-21T10:59:44;5.15;;;4.60;;
43996;SDS011;34318;45.818;15.964;2024-02-21T11:02:12;7.20;;;5.00;;
43996;SDS011;34318;45.818;15.964;2024-02-21T11:04:39;11.10;;;5.30;;
43996;SDS011;34318;45.818;15.964;2024-02-21T11:07:07;11.30;;;4.88;;
43996;SDS011;34318;45.818;15.964;2024-02-21T11:09:37;10.02;;;5.53;;
43996;SDS011;34318;45.818;15.964;2024-02-21T11:12:05;11.05;;;5.07;;
43996;SDS011;34318;45.818;15.964;2024-02-21T11:14:33;11.23;;;5.68;;
43996;SDS011;34318;45.818;15.964;2024-02-21T11:17:15;9.13;;;5.32;;
43996;SDS011;34318;45.818;15.964;2024-02-21T11:19:43;9.57;;;5.28;;
43996;SDS011;34318;45.818;15.964;2024-02-21T11:22:18;8.48;;;4.70;;
43996;SDS011;34318;45.818;15.964;2024-02-21T11:24:46;7.82;;;4.93;;
43996;SDS011;34318;45.818;15.964;2024-02-21T11:27:19;8.52;;;5.20;;
43996;SDS011;34318;45.818;15.964;2024-02-21T11:29:58;8.95;;;5.50;;
43996;SDS011;34318;45.818;15.964;2024-02-21T11:32:26;9.13;;;5.38;;
43996;SDS011;34318;45.818;15.964;2024-02-21T11:37:31;13.65;;;5.40;;
43996;SDS011;34318;45.818;15.964;2024-02-21T11:40:06;10.73;;;6.03;;
43996;SDS011;34318;45.818;15.964;2024-02-21T11:42:37;11.98;;;5.50;;
43996;SDS011;34318;45.818;15.964;2024-02-21T11:45:06;9.02;;;5.18;;
43996;SDS011;34318;45.818;15.964;2024-02-21T11:47:35;7.47;;;5.45;;
43996;SDS011;34318;45.818;15.964;2024-02-21T11:50:09;11.10;;;5.45;;
43996;SDS011;34318;45.818;15.964;2024-02-21T11:52:38;10.70;;;6.07;;
43996;SDS011;34318;45.818;15.964;2024-02-21T11:55:05;6.00;;;4.85;;
43996;SDS011;34318;45.818;15.964;2024-02-21T11:57:36;8.50;;;5.25;;
43996;SDS011;34318;45.818;15.964;2024-02-21T12:00:11;10.73;;;5.40;;
43996;SDS011;34318;45.818;15.964;2024-02-21T12:02:39;9.45;;;5.43;;
43996;SDS011;34318;45.818;15.964;2024-02-21T12:05:06;13.60;;;6.00;;
43996;SDS011;34318;45.818;15.964;2024-02-21T12:07:35;13.13;;;6.10;;
43996;SDS011;34318;45.818;15.964;2024-02-21T12:10:11;13.20;;;6.10;;
43996;SDS011;34318;45.818;15.964;2024-02-21T12:12:40;11.67;;;6.27;;
43996;SDS011;34318;45.818;15.964;2024-02-21T12:15:08;15.90;;;6.68;;
43996;SDS011;34318;45.818;15.964;2024-02-21T12:17:36;18.80;;;6.78;;
43996;SDS011;34318;45.818;15.964;2024-02-21T12:20:04;12.05;;;6.55;;
43996;SDS011;34318;45.818;15.964;2024-02-21T12:22:32;7.68;;;5.65;;
43996;SDS011;34318;45.818;15.964;2024-02-21T12:25:00;13.70;;;5.70;;
43996;SDS011;34318;45.818;15.964;2024-02-21T12:27:29;13.32;;;6.68;;
43996;SDS011;34318;45.818;15.964;2024-02-21T12:29:57;15.20;;;7.07;;
43996;SDS011;34318;45.818;15.964;2024-02-21T12:32:24;11.95;;;5.75;;
43996;SDS011;34318;45.818;15.964;2024-02-21T12:34:51;11.20;;;5.70;;
43996;SDS011;34318;45.818;15.964;2024-02-21T12:37:21;14.77;;;6.43;;
43996;SDS011;34318;45.818;15.964;2024-02-21T12:39:48;14.27;;;5.82;;
43996;SDS011;34318;45.818;15.964;2024-02-21T12:42:16;10.57;;;5.60;;
43996;SDS011;34318;45.818;15.964;2024-02-21T12:44:43;9.75;;;5.70;;
43996;SDS011;34318;45.818;15.964;2024-02-21T12:47:11;13.00;;;5.93;;
43996;SDS011;34318;45.818;15.964;2024-02-21T12:49:38;10.02;;;6.13;;
43996;SDS011;34318;45.818;15.964;2024-02-21T12:52:11;10.18;;;5.95;;
43996;SDS011;34318;45.818;15.964;2024-02-21T12:54:40;8.48;;;5.80;;
43996;SDS011;34318;45.818;15.964;2024-02-21T12:57:08;12.73;;;5.88;;
43996;SDS011;34318;45.818;15.964;2024-02-21T12:59:36;10.10;;;6.28;;
43996;SDS011;34318;45.818;15.964;2024-02-21T13:02:03;10.98;;;6.28;;
43996;SDS011;34318;45.818;15.964;2024-02-21T13:04:30;10.10;;;5.78;;
43996;SDS011;34318;45.818;15.964;2024-02-21T13:06:57;7.15;;;5.82;;
43996;SDS011;34318;45.818;15.964;2024-02-21T13:09:25;10.63;;;5.63;;
43996;SDS011;34318;45.818;15.964;2024-02-21T13:11:52;8.55;;;5.38;;
43996;SDS011;34318;45.818;15.964;2024-02-21T13:14:19;12.45;;;5.90;;
43996;SDS011;34318;45.818;15.964;2024-02-21T13:16:49;7.55;;;5.68;;
43996;SDS011;34318;45.818;15.964;2024-02-21T13:19:16;12.50;;;5.78;;
43996;SDS011;34318;45.818;15.964;2024-02-21T13:21:44;8.50;;;5.38;;
43996;SDS011;34318;45.818;15.964;2024-02-21T13:24:12;9.93;;;5.72;;
43996;SDS011;34318;45.818;15.964;2024-02-21T13:26:39;8.32;;;5.63;;
43996;SDS011;34318;45.818;15.964;2024-02-21T13:29:07;11.00;;;6.15;;
43996;SDS011;34318;45.818;15.964;2024-02-21T13:31:34;7.05;;;5.53;;
43996;SDS011;34318;45.818;15.964;2024-02-21T13:34:02;7.20;;;6.03;;
43996;SDS011;34318;45.818;15.964;2024-02-21T13:36:29;10.27;;;6.55;;
43996;SDS011;34318;45.818;15.964;2024-02-21T13:38:57;9.57;;;5.45;;
43996;SDS011;34318;45.818;15.964;2024-02-21T13:41:24;13.95;;;5.32;;
43996;SDS011;34318;45.818;15.964;2024-02-21T13:43:51;6.22;;;5.45;;
43996;SDS011;34318;45.818;15.964;2024-02-21T13:46:18;12.90;;;5.25;;
43996;SDS011;34318;45.818;15.964;2024-02-21T13:48:46;9.05;;;5.07;;
43996;SDS011;34318;45.818;15.964;2024-02-21T13:51:13;7.53;;;5.18;;
43996;SDS011;34318;45.818;15.964;2024-02-21T13:53:42;5.18;;;4.43;;
43996;SDS011;34318;45.818;15.964;2024-02-21T13:56:10;6.75;;;4.78;;
43996;SDS011;34318;45.818;15.964;2024-02-21T13:58:37;5.53;;;3.95;;
43996;SDS011;34318;45.818;15.964;2024-02-21T14:01:04;4.60;;;3.75;;
43996;SDS011;34318;45.818;15.964;2024-02-21T14:03:31;4.55;;;4.13;;
43996;SDS011;34318;45.818;15.964;2024-02-21T14:05:59;6.32;;;4.90;;
43996;SDS011;34318;45.818;15.964;2024-02-21T14:08:26;10.23;;;6.00;;
43996;SDS011;34318;45.818;15.964;2024-02-21T14:10:54;9.43;;;6.20;;
43996;SDS011;34318;45.818;15.964;2024-02-21T14:13:22;8.45;;;5.50;;
43996;SDS011;34318;45.818;15.964;2024-02-21T14:15:49;5.38;;;4.88;;
43996;SDS011;34318;45.818;15.964;2024-02-21T14:18:17;5.55;;;4.80;;
43996;SDS011;34318;45.818;15.964;2024-02-21T14:20:44;6.50;;;4.70;;
43996;SDS011;34318;45.818;15.964;2024-02-21T14:23:13;5.53;;;4.97;;
43996;SDS011;34318;45.818;15.964;2024-02-21T14:25:40;5.78;;;4.47;;
43996;SDS011;34318;45.818;15.964;2024-02-21T14:28:08;4.65;;;4.25;;
43996;SDS011;34318;45.818;15.964;2024-02-21T14:30:35;4.78;;;4.07;;
43996;SDS011;34318;45.818;15.964;2024-02-21T14:33:03;4.32;;;4.03;;
43996;SDS011;34318;45.818;15.964;2024-02-21T14:35:30;4.57;;;4.18;;
43996;SDS011;34318;45.818;15.964;2024-02-21T14:37:57;5.15;;;4.40;;
43996;SDS011;34318;45.818;15.964;2024-02-21T14:40:27;4.25;;;3.85;;
43996;SDS011;34318;45.818;15.964;2024-02-21T14:42:56;9.55;;;5.63;;